createdAt,value
2023-04-01T00:08:12.127Z,11.63
2023-04-01T00:18:16.483Z,11.52
2023-04-01T00:28:22.710Z,11.61
2023-04-01T00:38:26.253Z,11.57
2023-04-01T00:48:35.391Z,11.59
2023-04-01T00:58:45.333Z,11.55
2023-04-01T01:09:12.690Z,11.55
2023-04-01T01:19:48.990Z,11.47
2023-04-01T01:30:39.909Z,11.30
2023-04-01T01:40:52.744Z,11.50
2023-04-01T01:50:56.535Z,11.55
2023-04-01T02:01:05.748Z,11.56
2023-04-01T02:11:12.941Z,11.50
2023-04-01T02:21:19.327Z,11.47
2023-04-01T02:31:25.134Z,11.39
2023-04-01T02:41:30.229Z,11.37
2023-04-01T02:51:34.318Z,11.38
2023-04-01T03:01:39.638Z,11.38
2023-04-01T03:11:43.533Z,11.50
2023-04-01T03:21:48.640Z,11.26
2023-04-01T03:31:52.337Z,11.09
2023-04-01T03:41:57.459Z,11.02
2023-04-01T03:52:01.249Z,11.23
2023-04-01T04:02:06.502Z,11.06
2023-04-01T04:12:10.355Z,10.97
2023-04-01T04:22:15.344Z,11.11
2023-04-01T04:32:19.050Z,11.07
2023-04-01T04:42:24.100Z,11.08
2023-04-01T04:52:27.754Z,11.21
2023-04-01T05:02:33.023Z,11.08
2023-04-01T05:12:38.309Z,11.11
2023-04-01T05:22:44.668Z,10.96
2023-04-01T05:32:48.355Z,11.11
2023-04-01T05:42:53.375Z,11.12
2023-04-01T05:52:57.163Z,11.11
2023-04-01T06:03:02.502Z,11.28
2023-04-01T06:13:10.591Z,11.22
2023-04-01T06:23:50.711Z,10.97
2023-04-01T06:34:18.340Z,10.87
2023-04-01T06:44:34.161Z,11.02
2023-04-01T06:54:41.478Z,11.41
2023-04-01T07:04:51.210Z,11.30
2023-04-01T07:14:57.085Z,11.27
2023-04-01T07:25:12.518Z,11.17
2023-04-01T07:35:25.826Z,11.20
2023-04-01T07:45:36.407Z,11.41
2023-04-01T07:55:47.939Z,11.51
2023-04-01T08:06:02.905Z,11.71
2023-04-01T08:16:15.038Z,12.03
2023-04-01T08:26:31.298Z,12.10
2023-04-01T08:36:39.348Z,12.13
2023-04-01T08:47:07.848Z,12.00
2023-04-01T08:57:24.217Z,12.34
2023-04-01T09:07:44.223Z,12.22
2023-04-01T09:18:26.600Z,12.22
2023-04-01T09:28:43.817Z,12.13
2023-04-01T09:38:59.339Z,11.97
2023-04-01T09:49:29.069Z,12.37
2023-04-01T10:00:17.909Z,12.59
2023-04-01T10:11:32.068Z,12.54
2023-04-01T10:22:25.334Z,12.63
2023-04-01T10:33:24.739Z,12.63
2023-04-01T10:44:28.468Z,12.56
2023-04-01T10:55:04.173Z,12.73
2023-04-01T11:06:08.430Z,12.93
2023-04-01T11:16:43.579Z,13.23
2023-04-01T11:27:02.504Z,13.33
2023-04-01T11:37:23.110Z,13.44
2023-04-01T11:48:09.354Z,13.40
2023-04-01T11:58:37.334Z,13.33
2023-04-01T12:08:48.827Z,13.15
2023-04-01T12:18:59.416Z,12.86
2023-04-01T12:29:21.803Z,12.83
2023-04-01T12:40:01.215Z,12.64
2023-04-01T12:50:39.576Z,12.56
2023-04-01T13:01:27.294Z,12.67
2023-04-01T13:11:49.580Z,13.11
2023-04-01T13:22:06.972Z,13.65
2023-04-01T13:32:33.286Z,14.02
2023-04-01T13:42:52.552Z,14.20
2023-04-01T13:53:28.130Z,14.41
2023-04-01T14:03:58.818Z,15.99
2023-04-01T14:14:16.492Z,16.31
2023-04-01T14:24:39.333Z,15.60
2023-04-01T14:35:01.831Z,15.19
2023-04-01T14:45:34.034Z,14.18
2023-04-01T14:55:51.906Z,15.39
2023-04-01T15:06:29.585Z,15.18
2023-04-01T15:16:43.764Z,14.40
2023-04-01T15:27:05.740Z,13.99
2023-04-01T15:37:20.747Z,14.16
2023-04-01T15:47:40.638Z,13.90
2023-04-01T15:58:03.631Z,13.90
2023-04-01T16:08:49.795Z,13.49
2023-04-01T16:19:12.815Z,13.39
2023-04-01T16:29:29.366Z,13.11
2023-04-01T16:39:44.611Z,13.14
2023-04-01T16:49:56.532Z,13.28
2023-04-01T17:00:12.921Z,13.41
2023-04-01T17:10:44.147Z,13.01
2023-04-01T17:20:52.753Z,12.87
2023-04-01T17:31:11.485Z,12.63
2023-04-01T17:41:27.940Z,12.52
2023-04-01T17:51:40.466Z,12.50
2023-04-01T18:01:59.392Z,12.20
2023-04-01T18:12:16.649Z,12.11
2023-04-01T18:22:28.188Z,12.20
2023-04-01T18:32:37.842Z,12.43
2023-04-01T18:42:53.921Z,12.11
2023-04-01T18:53:14.206Z,11.89
2023-04-01T19:03:25.464Z,11.79
2023-04-01T19:13:40.426Z,11.67
2023-04-01T19:24:27.961Z,11.72
2023-04-01T19:34:49.227Z,11.70
2023-04-01T19:45:09.235Z,11.79
2023-04-01T19:55:34.899Z,11.69
2023-04-01T20:05:56.220Z,11.57
2023-04-01T20:16:08.277Z,11.54
2023-04-01T20:26:14.605Z,11.41
2023-04-01T20:36:28.068Z,11.34
2023-04-01T20:46:50.515Z,11.40
2023-04-01T20:57:05.729Z,11.45
2023-04-01T21:07:24.292Z,11.30
2023-04-01T21:17:44.495Z,11.33
2023-04-01T21:28:09.701Z,11.20
2023-04-01T21:38:35.288Z,11.20
2023-04-01T21:48:55.484Z,11.19
2023-04-01T21:59:42.111Z,11.09
2023-04-01T22:09:59.034Z,10.90
2023-04-01T22:20:21.165Z,10.79
2023-04-01T22:30:26.962Z,10.97
2023-04-01T22:40:40.155Z,10.89
2023-04-01T22:50:52.634Z,10.81
2023-04-01T23:01:01.445Z,10.71
2023-04-01T23:11:08.777Z,10.75
2023-04-01T23:21:20.925Z,10.79
2023-04-01T23:31:31.901Z,10.84
2023-04-01T23:41:37.402Z,10.76
2023-04-01T23:51:53.546Z,10.75
